Main page
METAR-TAF:

METAR-TAF

Airports :

Linton-on-Ouse, England

RAF Linton-on-Ouse

latitude: 54-03N, longitude: 001-15W, elevation: 16 m

Current weather observation

The report was made 1 hour and 0 minutes ago, at 16:50 UTC
Wind 3 kt from the East/Southeast
Temperature 11°C
Humidity 50%
Pressure 1015 hPa
Visibility 10 km or more

METAR: EGXU 281650Z AUTO 12003KT 9999 // OVC047/// 11/01 Q1015

Time: 18:50 (17:50 UTC)

Forecast

The report was made 5 hours and 57 minutes ago, at 11:53 UTC
Forecast valid from 28 at 13 UTC to 28 at 17 UTC
Wind 5 kt from the North/Northwest
Visibility 10 km or more
Few clouds at a height of 3500 ft
Scattered clouds at a height of 4000 ft

TAF: EGXU 281153Z 2813/2817 33005KT 9999 FEW035 SCT040

Weather observations and forecasts of more than 4000 airports (METAR and TAF reports).

The available stations are represented by yellow and red dots on the map.

Hover mouse over dot to see the name of the station.

Then click to see weather observations and forecasts.

To change the map : click on the green buttons with a black cross to zoom in, on the green button with a dash to zoom out, or on the green arrows for adjacent maps.


METAR-TAF: